sensor_id;sensor_type;location;lat;lon;timestamp;pressure;altitude;pressure_sealevel;temperature;humidity
17309;BME280;8772;42.804;23.426;2023-04-10T00:01:14;74271.25;;;-140.58;100.00
17309;BME280;8772;42.804;23.426;2023-04-10T00:03:41;74273.31;;;-140.58;100.00
17309;BME280;8772;42.804;23.426;2023-04-10T00:06:09;74261.00;;;-140.58;100.00
17309;BME280;8772;42.804;23.426;2023-04-10T00:08:36;74256.91;;;-140.58;100.00
17309;BME280;8772;42.804;23.426;2023-04-10T00:11:03;74258.94;;;-140.58;100.00
17309;BME280;8772;42.804;23.426;2023-04-10T00:13:31;74283.56;;;-140.58;100.00
17309;BME280;8772;42.804;23.426;2023-04-10T00:15:58;74271.25;;;-140.58;100.00
17309;BME280;8772;42.804;23.426;2023-04-10T00:18:25;74269.22;;;-140.58;100.00
17309;BME280;8772;42.804;23.426;2023-04-10T00:20:53;74273.31;;;-140.58;100.00
17309;BME280;8772;42.804;23.426;2023-04-10T00:23:21;74269.22;;;-140.58;100.00
17309;BME280;8772;42.804;23.426;2023-04-10T00:25:48;74265.09;;;-140.58;100.00
17309;BME280;8772;42.804;23.426;2023-04-10T00:28:15;74263.06;;;-140.58;100.00
17309;BME280;8772;42.804;23.426;2023-04-10T00:30:42;74265.09;;;-140.58;100.00
17309;BME280;8772;42.804;23.426;2023-04-10T00:33:09;74265.09;;;-140.58;100.00
17309;BME280;8772;42.804;23.426;2023-04-10T00:35:35;74252.81;;;-140.58;100.00
17309;BME280;8772;42.804;23.426;2023-04-10T00:38:02;74273.31;;;-140.58;100.00
17309;BME280;8772;42.804;23.426;2023-04-10T00:40:31;74261.00;;;-140.58;100.00
17309;BME280;8772;42.804;23.426;2023-04-10T00:42:57;74263.06;;;-140.58;100.00
17309;BME280;8772;42.804;23.426;2023-04-10T00:45:24;74261.00;;;-140.58;100.00
17309;BME280;8772;42.804;23.426;2023-04-10T00:47:52;74252.81;;;-140.58;100.00
17309;BME280;8772;42.804;23.426;2023-04-10T00:50:19;74240.50;;;-140.58;100.00
17309;BME280;8772;42.804;23.426;2023-04-10T00:52:47;74232.28;;;-140.58;100.00
17309;BME280;8772;42.804;23.426;2023-04-10T00:55:16;74240.50;;;-140.58;100.00
17309;BME280;8772;42.804;23.426;2023-04-10T00:57:45;74240.50;;;-140.58;100.00
17309;BME280;8772;42.804;23.426;2023-04-10T01:00:13;74224.06;;;-140.58;100.00
17309;BME280;8772;42.804;23.426;2023-04-10T01:02:40;74232.28;;;-140.58;100.00
17309;BME280;8772;42.804;23.426;2023-04-10T01:08:25;74222.03;;;-140.58;100.00
17309;BME280;8772;42.804;23.426;2023-04-10T01:11:00;74234.34;;;-140.58;100.00
17309;BME280;8772;42.804;23.426;2023-04-10T01:13:46;74238.44;;;-140.58;100.00
17309;BME280;8772;42.804;23.426;2023-04-10T01:16:21;74211.75;;;-140.58;100.00
17309;BME280;8772;42.804;23.426;2023-04-10T01:19:06;74205.59;;;-140.58;100.00
17309;BME280;8772;42.804;23.426;2023-04-10T01:21:37;74230.22;;;-140.58;100.00
17309;BME280;8772;42.804;23.426;2023-04-10T01:24:26;74248.69;;;-140.58;100.00
17309;BME280;8772;42.804;23.426;2023-04-10T01:27:09;74254.84;;;-140.58;100.00
17309;BME280;8772;42.804;23.426;2023-04-10T01:29:46;74261.00;;;-140.58;100.00
17309;BME280;8772;42.804;23.426;2023-04-10T01:32:15;74269.22;;;-140.58;100.00
17309;BME280;8772;42.804;23.426;2023-04-10T01:34:46;74279.47;;;-140.58;100.00
17309;BME280;8772;42.804;23.426;2023-04-10T01:37:16;74275.38;;;-140.58;100.00
17309;BME280;8772;42.804;23.426;2023-04-10T01:39:46;74263.06;;;-140.58;100.00
17309;BME280;8772;42.804;23.426;2023-04-10T01:42:15;74256.91;;;-140.58;100.00
17309;BME280;8772;42.804;23.426;2023-04-10T01:44:45;74265.09;;;-140.58;100.00
17309;BME280;8772;42.804;23.426;2023-04-10T01:47:14;74248.69;;;-140.58;100.00
17309;BME280;8772;42.804;23.426;2023-04-10T01:49:44;74240.50;;;-140.58;100.00
17309;BME280;8772;42.804;23.426;2023-04-10T01:52:13;74234.34;;;-140.58;100.00
17309;BME280;8772;42.804;23.426;2023-04-10T01:54:41;74261.00;;;-140.58;100.00
17309;BME280;8772;42.804;23.426;2023-04-10T01:57:10;74265.09;;;-140.58;100.00
17309;BME280;8772;42.804;23.426;2023-04-10T01:59:39;74250.75;;;-140.58;100.00
17309;BME280;8772;42.804;23.426;2023-04-10T02:02:08;74256.91;;;-140.58;100.00
17309;BME280;8772;42.804;23.426;2023-04-10T02:04:36;74265.09;;;-140.58;100.00
17309;BME280;8772;42.804;23.426;2023-04-10T02:07:03;74279.47;;;-140.58;100.00
17309;BME280;8772;42.804;23.426;2023-04-10T02:09:39;74254.84;;;-140.58;100.00
17309;BME280;8772;42.804;23.426;2023-04-10T02:12:15;74269.22;;;-140.58;100.00
17309;BME280;8772;42.804;23.426;2023-04-10T02:14:44;74285.63;;;-140.58;100.00
17309;BME280;8772;42.804;23.426;2023-04-10T02:17:15;74289.72;;;-140.58;100.00
17309;BME280;8772;42.804;23.426;2023-04-10T02:19:45;74261.00;;;-140.58;100.00
17309;BME280;8772;42.804;23.426;2023-04-10T02:22:14;74240.50;;;-140.58;100.00
17309;BME280;8772;42.804;23.426;2023-04-10T02:24:42;74240.50;;;-140.58;100.00
17309;BME280;8772;42.804;23.426;2023-04-10T02:27:09;74240.50;;;-140.58;100.00
17309;BME280;8772;42.804;23.426;2023-04-10T02:29:36;74224.06;;;-140.58;100.00
17309;BME280;8772;42.804;23.426;2023-04-10T02:32:03;74248.69;;;-140.58;100.00
17309;BME280;8772;42.804;23.426;2023-04-10T02:34:31;74217.91;;;-140.58;100.00
17309;BME280;8772;42.804;23.426;2023-04-10T02:36:58;74224.06;;;-140.58;100.00
17309;BME280;8772;42.804;23.426;2023-04-10T02:39:25;74213.81;;;-140.58;100.00
17309;BME280;8772;42.804;23.426;2023-04-10T02:41:51;74213.81;;;-140.58;100.00
17309;BME280;8772;42.804;23.426;2023-04-10T02:44:18;74232.28;;;-140.58;100.00
17309;BME280;8772;42.804;23.426;2023-04-10T02:46:45;74261.00;;;-140.58;100.00
17309;BME280;8772;42.804;23.426;2023-04-10T02:49:12;74281.53;;;-140.58;100.00
17309;BME280;8772;42.804;23.426;2023-04-10T02:51:40;74277.41;;;-140.58;100.00
17309;BME280;8772;42.804;23.426;2023-04-10T02:54:07;74291.78;;;-140.58;100.00
17309;BME280;8772;42.804;23.426;2023-04-10T02:56:34;74322.56;;;-140.58;100.00
17309;BME280;8772;42.804;23.426;2023-04-10T02:59:01;74322.56;;;-140.58;100.00
17309;BME280;8772;42.804;23.426;2023-04-10T03:01:28;74322.56;;;-140.58;100.00
17309;BME280;8772;42.804;23.426;2023-04-10T03:03:55;74326.66;;;-140.58;100.00
17309;BME280;8772;42.804;23.426;2023-04-10T03:06:22;74338.97;;;-140.58;100.00
17309;BME280;8772;42.804;23.426;2023-04-10T03:08:55;74332.81;;;-140.58;100.00
17309;BME280;8772;42.804;23.426;2023-04-10T03:11:22;74347.19;;;-140.58;100.00
17309;BME280;8772;42.804;23.426;2023-04-10T03:13:49;74365.66;;;-140.58;100.00
17309;BME280;8772;42.804;23.426;2023-04-10T03:16:16;74363.59;;;-140.58;100.00
17309;BME280;8772;42.804;23.426;2023-04-10T03:18:43;74351.28;;;-140.58;100.00
17309;BME280;8772;42.804;23.426;2023-04-10T03:21:10;74349.22;;;-140.58;100.00
17309;BME280;8772;42.804;23.426;2023-04-10T03:23:37;74363.59;;;-140.58;100.00
17309;BME280;8772;42.804;23.426;2023-04-10T03:26:05;74367.69;;;-140.58;100.00
17309;BME280;8772;42.804;23.426;2023-04-10T03:28:33;74363.59;;;-140.58;100.00
17309;BME280;8772;42.804;23.426;2023-04-10T03:31:01;74375.91;;;-140.58;100.00
17309;BME280;8772;42.804;23.426;2023-04-10T03:33:28;74365.66;;;-140.58;100.00
17309;BME280;8772;42.804;23.426;2023-04-10T03:35:55;74363.59;;;-140.58;100.00
17309;BME280;8772;42.804;23.426;2023-04-10T03:38:22;74371.81;;;-140.58;100.00
17309;BME280;8772;42.804;23.426;2023-04-10T03:40:49;74365.66;;;-140.58;100.00
17309;BME280;8772;42.804;23.426;2023-04-10T03:43:18;74371.81;;;-140.58;100.00
17309;BME280;8772;42.804;23.426;2023-04-10T03:45:45;74380.00;;;-140.58;100.00
17309;BME280;8772;42.804;23.426;2023-04-10T03:48:12;74382.06;;;-140.58;100.00
17309;BME280;8772;42.804;23.426;2023-04-10T03:50:39;74380.00;;;-140.58;100.00
17309;BME280;8772;42.804;23.426;2023-04-10T03:53:06;74382.06;;;-140.58;100.00
17309;BME280;8772;42.804;23.426;2023-04-10T03:55:33;74382.06;;;-140.58;100.00
17309;BME280;8772;42.804;23.426;2023-04-10T03:58:01;74382.06;;;-140.58;100.00
17309;BME280;8772;42.804;23.426;2023-04-10T04:00:30;74388.22;;;-140.58;100.00
17309;BME280;8772;42.804;23.426;2023-04-10T04:02:57;74402.56;;;-140.58;100.00
17309;BME280;8772;42.804;23.426;2023-04-10T04:05:25;74425.16;;;-140.58;100.00
17309;BME280;8772;42.804;23.426;2023-04-10T04:07:52;74402.56;;;-140.58;100.00
17309;BME280;8772;42.804;23.426;2023-04-10T04:10:19;74396.41;;;-140.58;100.00
17309;BME280;8772;42.804;23.426;2023-04-10T04:12:46;74380.00;;;-140.58;100.00
17309;BME280;8772;42.804;23.426;2023-04-10T04:15:13;74388.22;;;-140.58;100.00
17309;BME280;8772;42.804;23.426;2023-04-10T04:17:41;74377.94;;;-140.58;100.00
17309;BME280;8772;42.804;23.426;2023-04-10T04:20:08;74367.69;;;-140.58;100.00
17309;BME280;8772;42.804;23.426;2023-04-10T04:22:36;74334.88;;;-140.58;100.00
17309;BME280;8772;42.804;23.426;2023-04-10T04:25:03;74343.06;;;-140.58;100.00
17309;BME280;8772;42.804;23.426;2023-04-10T04:27:33;74326.66;;;-140.58;100.00
17309;BME280;8772;42.804;23.426;2023-04-10T04:30:00;74318.44;;;-140.58;100.00
17309;BME280;8772;42.804;23.426;2023-04-10T04:32:27;74297.94;;;-140.58;100.00
17309;BME280;8772;42.804;23.426;2023-04-10T04:34:55;74285.63;;;-140.58;100.00
17309;BME280;8772;42.804;23.426;2023-04-10T04:37:22;74289.72;;;-140.58;100.00
17309;BME280;8772;42.804;23.426;2023-04-10T04:39:49;74291.78;;;-140.58;100.00
17309;BME280;8772;42.804;23.426;2023-04-10T04:42:15;74289.72;;;-140.58;100.00
17309;BME280;8772;42.804;23.426;2023-04-10T04:44:42;74273.31;;;-140.58;100.00
17309;BME280;8772;42.804;23.426;2023-04-10T04:47:09;74248.69;;;-140.58;100.00
17309;BME280;8772;42.804;23.426;2023-04-10T04:49:36;74258.94;;;-140.58;100.00
17309;BME280;8772;42.804;23.426;2023-04-10T04:52:04;74240.50;;;-140.58;100.00
17309;BME280;8772;42.804;23.426;2023-04-10T04:54:33;74252.81;;;-140.58;100.00
17309;BME280;8772;42.804;23.426;2023-04-10T04:57:00;74242.53;;;-140.58;100.00
17309;BME280;8772;42.804;23.426;2023-04-10T04:59:27;74232.28;;;-140.58;100.00
17309;BME280;8772;42.804;23.426;2023-04-10T05:01:54;74234.34;;;-140.58;100.00
17309;BME280;8772;42.804;23.426;2023-04-10T05:04:20;74228.19;;;-140.58;100.00
17309;BME280;8772;42.804;23.426;2023-04-10T05:06:47;74219.97;;;-140.58;100.00
17309;BME280;8772;42.804;23.426;2023-04-10T05:09:16;74213.81;;;-140.58;100.00
17309;BME280;8772;42.804;23.426;2023-04-10T05:11:43;74217.91;;;-140.58;100.00
17309;BME280;8772;42.804;23.426;2023-04-10T05:14:10;74209.72;;;-140.58;100.00
17309;BME280;8772;42.804;23.426;2023-04-10T05:16:36;74199.47;;;-140.58;100.00
17309;BME280;8772;42.804;23.426;2023-04-10T05:19:03;74168.69;;;-140.58;100.00
17309;BME280;8772;42.804;23.426;2023-04-10T05:21:30;74168.69;;;-140.58;100.00
17309;BME280;8772;42.804;23.426;2023-04-10T05:23:57;74162.53;;;-140.58;100.00
17309;BME280;8772;42.804;23.426;2023-04-10T05:26:26;74146.09;;;-140.58;100.00
17309;BME280;8772;42.804;23.426;2023-04-10T05:28:52;74129.69;;;-140.58;100.00
17309;BME280;8772;42.804;23.426;2023-04-10T05:31:19;74133.81;;;-140.58;100.00
17309;BME280;8772;42.804;23.426;2023-04-10T05:33:46;74123.53;;;-140.58;100.00
17309;BME280;8772;42.804;23.426;2023-04-10T05:36:13;74135.84;;;-140.58;100.00
17309;BME280;8772;42.804;23.426;2023-04-10T05:38:42;74123.53;;;-140.58;100.00
17309;BME280;8772;42.804;23.426;2023-04-10T05:41:09;74125.59;;;-140.58;100.00
17309;BME280;8772;42.804;23.426;2023-04-10T05:43:37;74113.28;;;-140.58;100.00
17309;BME280;8772;42.804;23.426;2023-04-10T05:46:05;74113.28;;;-140.58;100.00
17309;BME280;8772;42.804;23.426;2023-04-10T05:48:32;74119.44;;;-140.58;100.00
17309;BME280;8772;42.804;23.426;2023-04-10T05:51:02;74129.69;;;-140.58;100.00
17309;BME280;8772;42.804;23.426;2023-04-10T05:53:31;74123.53;;;-140.58;100.00
17309;BME280;8772;42.804;23.426;2023-04-10T05:56:03;74133.81;;;-140.58;100.00
17309;BME280;8772;42.804;23.426;2023-04-10T05:58:30;74119.44;;;-140.58;100.00
17309;BME280;8772;42.804;23.426;2023-04-10T06:00:59;74100.97;;;-140.58;100.00
17309;BME280;8772;42.804;23.426;2023-04-10T06:03:28;74105.09;;;-140.58;100.00
17309;BME280;8772;42.804;23.426;2023-04-10T06:05:55;74084.56;;;-140.58;100.00
17309;BME280;8772;42.804;23.426;2023-04-10T06:08:26;74080.47;;;-140.58;100.00
17309;BME280;8772;42.804;23.426;2023-04-10T06:10:55;74076.34;;;-140.58;100.00
17309;BME280;8772;42.804;23.426;2023-04-10T06:13:21;74055.84;;;-140.58;100.00
17309;BME280;8772;42.804;23.426;2023-04-10T06:15:49;74043.53;;;-140.58;97.12
17309;BME280;8772;42.804;23.426;2023-04-10T06:18:17;74018.91;;;-140.58;100.00
17309;BME280;8772;42.804;23.426;2023-04-10T06:20:44;74000.44;;;-140.58;100.00
17309;BME280;8772;42.804;23.426;2023-04-10T06:23:12;73979.94;;;-140.58;100.00
17309;BME280;8772;42.804;23.426;2023-04-10T06:25:38;73969.69;;;-140.58;97.71
17309;BME280;8772;42.804;23.426;2023-04-10T06:28:06;73973.78;;;-140.58;94.26
17309;BME280;8772;42.804;23.426;2023-04-10T06:30:33;73986.09;;;-140.58;94.34
17309;BME280;8772;42.804;23.426;2023-04-10T06:33:01;73990.19;;;-140.58;92.57
17309;BME280;8772;42.804;23.426;2023-04-10T06:35:33;74016.84;;;-140.58;95.00
17309;BME280;8772;42.804;23.426;2023-04-10T06:38:03;74018.91;;;-140.58;95.99
17309;BME280;8772;42.804;23.426;2023-04-10T06:40:30;74020.97;;;-140.58;96.85
17309;BME280;8772;42.804;23.426;2023-04-10T06:42:58;74037.38;;;-140.58;99.03
17309;BME280;8772;42.804;23.426;2023-04-10T06:45:25;74047.63;;;-140.58;98.63
17309;BME280;8772;42.804;23.426;2023-04-10T06:47:52;74027.13;;;-140.58;96.72
17309;BME280;8772;42.804;23.426;2023-04-10T06:50:19;74018.91;;;-140.58;96.69
17309;BME280;8772;42.804;23.426;2023-04-10T06:52:47;74023.00;;;-140.58;94.66
17309;BME280;8772;42.804;23.426;2023-04-10T06:55:14;74035.31;;;-140.58;94.53
17309;BME280;8772;42.804;23.426;2023-04-10T06:57:41;74018.91;;;-140.58;95.12
17309;BME280;8772;42.804;23.426;2023-04-10T07:00:09;74006.59;;;-140.58;96.93
17309;BME280;8772;42.804;23.426;2023-04-10T07:02:36;74018.91;;;-140.58;98.94
17309;BME280;8772;42.804;23.426;2023-04-10T07:05:06;74010.72;;;-140.58;95.32
17309;BME280;8772;42.804;23.426;2023-04-10T07:07:35;73998.41;;;-140.58;92.25
17309;BME280;8772;42.804;23.426;2023-04-10T07:10:04;74012.75;;;-140.58;90.55
17309;BME280;8772;42.804;23.426;2023-04-10T07:12:31;74000.44;;;-140.58;90.09
17309;BME280;8772;42.804;23.426;2023-04-10T07:14:59;74020.97;;;-140.58;93.13
17309;BME280;8772;42.804;23.426;2023-04-10T07:17:26;74020.97;;;-140.58;93.50
17309;BME280;8772;42.804;23.426;2023-04-10T07:19:53;74010.72;;;-140.58;93.15
17309;BME280;8772;42.804;23.426;2023-04-10T07:22:20;74010.72;;;-140.58;89.05
17309;BME280;8772;42.804;23.426;2023-04-10T07:24:47;74012.75;;;-140.58;90.21
17309;BME280;8772;42.804;23.426;2023-04-10T07:27:15;74004.56;;;-140.58;87.79
17309;BME280;8772;42.804;23.426;2023-04-10T07:29:42;74004.56;;;-140.58;87.70
17309;BME280;8772;42.804;23.426;2023-04-10T07:32:09;74006.59;;;-140.58;89.27
17309;BME280;8772;42.804;23.426;2023-04-10T07:34:36;73971.72;;;-140.58;93.36
17309;BME280;8772;42.804;23.426;2023-04-10T07:37:03;73975.81;;;-140.58;88.39
17309;BME280;8772;42.804;23.426;2023-04-10T07:39:30;73965.56;;;-140.58;86.58
17309;BME280;8772;42.804;23.426;2023-04-10T07:41:57;73936.84;;;-140.58;84.87
17309;BME280;8772;42.804;23.426;2023-04-10T07:44:26;73924.53;;;-140.58;81.47
17309;BME280;8772;42.804;23.426;2023-04-10T07:46:53;73928.66;;;-140.58;79.53
17309;BME280;8772;42.804;23.426;2023-04-10T07:49:21;73920.44;;;-140.58;82.10
17309;BME280;8772;42.804;23.426;2023-04-10T07:51:55;73920.44;;;-140.58;82.23
17309;BME280;8772;42.804;23.426;2023-04-10T07:54:22;73910.19;;;-140.58;78.38
17309;BME280;8772;42.804;23.426;2023-04-10T07:56:51;73920.44;;;-140.58;82.11
17309;BME280;8772;42.804;23.426;2023-04-10T07:59:17;73904.03;;;-140.58;82.41
17309;BME280;8772;42.804;23.426;2023-04-10T08:01:46;73885.56;;;-140.58;78.67
17309;BME280;8772;42.804;23.426;2023-04-10T08:04:12;73867.09;;;-140.58;82.58
17309;BME280;8772;42.804;23.426;2023-04-10T08:06:39;73842.47;;;-140.58;80.04
17309;BME280;8772;42.804;23.426;2023-04-10T08:09:06;73846.59;;;-140.58;76.81
17309;BME280;8772;42.804;23.426;2023-04-10T08:11:34;73805.56;;;-140.58;77.89
17309;BME280;8772;42.804;23.426;2023-04-10T08:14:02;73826.06;;;-140.58;77.92
17309;BME280;8772;42.804;23.426;2023-04-10T08:16:31;73826.06;;;-140.58;74.35
17309;BME280;8772;42.804;23.426;2023-04-10T08:19:00;73795.28;;;-140.58;74.97
17309;BME280;8772;42.804;23.426;2023-04-10T08:21:28;73801.44;;;-140.58;81.73
17309;BME280;8772;42.804;23.426;2023-04-10T08:23:59;73772.72;;;-140.58;75.90
17309;BME280;8772;42.804;23.426;2023-04-10T08:26:26;73789.16;;;-140.58;74.55
17309;BME280;8772;42.804;23.426;2023-04-10T08:28:56;73789.16;;;-140.58;67.46
17309;BME280;8772;42.804;23.426;2023-04-10T08:31:24;73805.56;;;-140.58;71.60
17309;BME280;8772;42.804;23.426;2023-04-10T08:33:51;73789.16;;;-140.58;72.32
17309;BME280;8772;42.804;23.426;2023-04-10T08:36:20;73797.34;;;-140.58;69.48
17309;BME280;8772;42.804;23.426;2023-04-10T08:38:47;73785.03;;;-140.58;70.53
17309;BME280;8772;42.804;23.426;2023-04-10T08:41:16;73758.38;;;-140.58;72.24
17309;BME280;8772;42.804;23.426;2023-04-10T08:43:43;73754.28;;;-140.58;72.33
17309;BME280;8772;42.804;23.426;2023-04-10T08:46:11;73774.78;;;-140.58;71.90
17309;BME280;8772;42.804;23.426;2023-04-10T08:48:44;73748.13;;;-140.58;72.61
17309;BME280;8772;42.804;23.426;2023-04-10T08:51:14;73750.16;;;-140.58;69.13
17309;BME280;8772;42.804;23.426;2023-04-10T08:53:44;73739.91;;;-140.58;70.64
17309;BME280;8772;42.804;23.426;2023-04-10T08:56:15;73768.63;;;-140.58;71.91
17309;BME280;8772;42.804;23.426;2023-04-10T08:58:43;73809.66;;;-140.58;74.02
17309;BME280;8772;42.804;23.426;2023-04-10T09:01:10;73817.88;;;-140.58;78.82
17309;BME280;8772;42.804;23.426;2023-04-10T09:03:37;73863.00;;;-140.58;79.70
17309;BME280;8772;42.804;23.426;2023-04-10T09:06:05;73846.59;;;-140.58;84.44
17309;BME280;8772;42.804;23.426;2023-04-10T09:08:32;73867.09;;;-140.58;88.12
17309;BME280;8772;42.804;23.426;2023-04-10T09:11:01;73863.00;;;-140.58;88.15
17309;BME280;8772;42.804;23.426;2023-04-10T09:13:36;73871.19;;;-140.58;91.36
17309;BME280;8772;42.804;23.426;2023-04-10T09:16:03;73860.94;;;-140.58;92.48
17309;BME280;8772;42.804;23.426;2023-04-10T09:18:46;73863.00;;;-140.58;91.89
17309;BME280;8772;42.804;23.426;2023-04-10T09:21:15;73832.22;;;-140.58;95.03
17309;BME280;8772;42.804;23.426;2023-04-10T09:23:43;73830.16;;;-140.58;92.40
17309;BME280;8772;42.804;23.426;2023-04-10T09:26:25;73850.69;;;-140.58;92.58
17309;BME280;8772;42.804;23.426;2023-04-10T09:29:00;73840.44;;;-140.58;90.29
17309;BME280;8772;42.804;23.426;2023-04-10T09:31:32;73838.38;;;-140.58;88.16
17309;BME280;8772;42.804;23.426;2023-04-10T09:34:13;73836.31;;;-140.58;90.08
17309;BME280;8772;42.804;23.426;2023-04-10T09:36:40;73858.91;;;-140.58;87.62
17309;BME280;8772;42.804;23.426;2023-04-10T09:39:09;73842.47;;;-140.58;86.16
17309;BME280;8772;42.804;23.426;2023-04-10T09:41:48;73838.38;;;-140.58;85.79
17309;BME280;8772;42.804;23.426;2023-04-10T09:44:17;73834.28;;;-140.58;83.94
17309;BME280;8772;42.804;23.426;2023-04-10T09:46:44;73803.50;;;-140.58;84.56
17309;BME280;8772;42.804;23.426;2023-04-10T09:49:11;73787.09;;;-140.58;83.36
17309;BME280;8772;42.804;23.426;2023-04-10T09:51:38;73811.72;;;-140.58;80.24
17309;BME280;8772;42.804;23.426;2023-04-10T09:54:05;73819.91;;;-140.58;81.64
17309;BME280;8772;42.804;23.426;2023-04-10T09:56:35;73795.28;;;-140.58;79.95
17309;BME280;8772;42.804;23.426;2023-04-10T09:59:06;73750.16;;;-140.58;80.62
17309;BME280;8772;42.804;23.426;2023-04-10T10:01:33;73705.03;;;-140.58;78.20
17309;BME280;8772;42.804;23.426;2023-04-10T10:04:03;73692.72;;;-140.58;72.85
17309;BME280;8772;42.804;23.426;2023-04-10T10:06:31;73682.47;;;-140.58;79.11
17309;BME280;8772;42.804;23.426;2023-04-10T10:09:01;73682.47;;;-140.58;70.91
17309;BME280;8772;42.804;23.426;2023-04-10T10:11:32;73672.22;;;-140.58;72.50
17309;BME280;8772;42.804;23.426;2023-04-10T10:14:02;73666.06;;;-140.58;71.59
17309;BME280;8772;42.804;23.426;2023-04-10T10:16:36;73649.66;;;-140.58;68.23
17309;BME280;8772;42.804;23.426;2023-04-10T10:19:08;73604.53;;;-140.58;67.09
17309;BME280;8772;42.804;23.426;2023-04-10T10:21:37;73604.53;;;-140.58;65.33
17309;BME280;8772;42.804;23.426;2023-04-10T10:24:07;73612.72;;;-140.58;63.91
17309;BME280;8772;42.804;23.426;2023-04-10T10:26:36;73616.81;;;-140.58;63.29
17309;BME280;8772;42.804;23.426;2023-04-10T10:29:05;73592.22;;;-140.58;64.15
17309;BME280;8772;42.804;23.426;2023-04-10T10:31:36;73575.81;;;-140.58;56.53
17309;BME280;8772;42.804;23.426;2023-04-10T10:34:04;73549.13;;;-140.58;55.92
17309;BME280;8772;42.804;23.426;2023-04-10T10:36:34;73547.09;;;-140.58;55.88
17309;BME280;8772;42.804;23.426;2023-04-10T10:39:20;73534.78;;;-140.58;56.87
17309;BME280;8772;42.804;23.426;2023-04-10T10:41:55;73522.47;;;-140.58;57.18
17309;BME280;8772;42.804;23.426;2023-04-10T10:44:31;73530.66;;;-140.58;55.41
17309;BME280;8772;42.804;23.426;2023-04-10T10:47:06;73571.69;;;-140.58;55.64
17309;BME280;8772;42.804;23.426;2023-04-10T10:49:51;73596.31;;;-140.58;56.02
17309;BME280;8772;42.804;23.426;2023-04-10T10:52:37;73622.97;;;-140.58;57.73
17309;BME280;8772;42.804;23.426;2023-04-10T10:55:28;73631.19;;;-140.58;55.89
17309;BME280;8772;42.804;23.426;2023-04-10T10:57:57;73637.34;;;-140.58;55.95
17309;BME280;8772;42.804;23.426;2023-04-10T11:00:26;73631.19;;;-140.58;57.44
17309;BME280;8772;42.804;23.426;2023-04-10T11:03:27;73600.41;;;-140.58;57.95
17309;BME280;8772;42.804;23.426;2023-04-10T11:05:56;73592.22;;;-140.58;55.12
17309;BME280;8772;42.804;23.426;2023-04-10T11:08:35;73592.22;;;-140.58;54.28
17309;BME280;8772;42.804;23.426;2023-04-10T11:11:04;73608.63;;;-140.58;54.78
17309;BME280;8772;42.804;23.426;2023-04-10T11:13:32;73592.22;;;-140.58;54.22
17309;BME280;8772;42.804;23.426;2023-04-10T11:16:00;73563.50;;;-140.58;54.37
17309;BME280;8772;42.804;23.426;2023-04-10T11:19:04;73559.38;;;-140.58;54.31
17309;BME280;8772;42.804;23.426;2023-04-10T11:21:31;73538.88;;;-140.58;55.29
17309;BME280;8772;42.804;23.426;2023-04-10T11:24:03;73563.50;;;-140.58;55.08
17309;BME280;8772;42.804;23.426;2023-04-10T11:26:37;73553.25;;;-140.58;56.64
17309;BME280;8772;42.804;23.426;2023-04-10T11:29:06;73551.19;;;-140.58;57.08
17309;BME280;8772;42.804;23.426;2023-04-10T11:31:56;73547.09;;;-140.58;55.82
17309;BME280;8772;42.804;23.426;2023-04-10T11:34:23;73538.88;;;-140.58;55.88
17309;BME280;8772;42.804;23.426;2023-04-10T11:36:52;73510.16;;;-140.58;54.73
17309;BME280;8772;42.804;23.426;2023-04-10T11:39:19;73522.47;;;-140.58;54.47
17309;BME280;8772;42.804;23.426;2023-04-10T11:41:47;73493.75;;;-140.58;54.26
17309;BME280;8772;42.804;23.426;2023-04-10T11:44:15;73514.25;;;-140.58;55.88
17309;BME280;8772;42.804;23.426;2023-04-10T11:46:45;73534.78;;;-140.58;55.21
17309;BME280;8772;42.804;23.426;2023-04-10T11:49:19;73563.50;;;-140.58;55.74
17309;BME280;8772;42.804;23.426;2023-04-10T11:51:47;73567.59;;;-140.58;55.28
17309;BME280;8772;42.804;23.426;2023-04-10T11:54:15;73563.50;;;-140.58;53.47
17309;BME280;8772;42.804;23.426;2023-04-10T11:56:44;73571.69;;;-140.58;55.64
17309;BME280;8772;42.804;23.426;2023-04-10T11:59:11;73592.22;;;-140.58;53.91
17309;BME280;8772;42.804;23.426;2023-04-10T12:01:41;73584.00;;;-140.58;53.64
17309;BME280;8772;42.804;23.426;2023-04-10T12:04:15;73579.91;;;-140.58;54.83
17309;BME280;8772;42.804;23.426;2023-04-10T12:06:44;73584.00;;;-140.58;54.02
17309;BME280;8772;42.804;23.426;2023-04-10T12:09:12;73579.91;;;-140.58;54.70
17309;BME280;8772;42.804;23.426;2023-04-10T12:11:47;73588.09;;;-140.58;53.66
17309;BME280;8772;42.804;23.426;2023-04-10T12:14:16;73616.81;;;-140.58;54.56
17309;BME280;8772;42.804;23.426;2023-04-10T12:16:43;73641.44;;;-140.58;56.09
17309;BME280;8772;42.804;23.426;2023-04-10T12:19:10;73620.94;;;-140.58;57.55
17309;BME280;8772;42.804;23.426;2023-04-10T12:21:38;73645.53;;;-140.58;59.87
17309;BME280;8772;42.804;23.426;2023-04-10T12:24:08;73717.34;;;-140.58;69.06
17309;BME280;8772;42.804;23.426;2023-04-10T12:26:35;73748.13;;;-140.58;76.07
17309;BME280;8772;42.804;23.426;2023-04-10T12:29:02;73760.44;;;-140.58;87.61
17309;BME280;8772;42.804;23.426;2023-04-10T12:31:31;73811.72;;;-140.58;88.16
17309;BME280;8772;42.804;23.426;2023-04-10T12:33:59;73854.78;;;-140.58;97.43
17309;BME280;8772;42.804;23.426;2023-04-10T12:36:28;73883.50;;;-140.58;97.35
17309;BME280;8772;42.804;23.426;2023-04-10T12:38:57;73889.66;;;-140.58;95.04
17309;BME280;8772;42.804;23.426;2023-04-10T12:41:28;73899.91;;;-140.58;100.00
17309;BME280;8772;42.804;23.426;2023-04-10T12:44:06;73883.50;;;-140.58;100.00
17309;BME280;8772;42.804;23.426;2023-04-10T12:46:33;73842.47;;;-140.58;100.00
17309;BME280;8772;42.804;23.426;2023-04-10T12:49:08;73838.38;;;-140.58;99.13